Time;durP1;ratioP1;P1;durP2;ratioP2;P2;SDS_P1;SDS_P2;PMS_P1;PMS_P2;Temp;Humidity;BMP_temperature;BMP_pressure;BME280_temperature;BME280_humidity;BME280_pressure;Samples;Min_cycle;Max_cycle;Signal;HPM_P1;HPM_P2
2021/05/24 04:02:54;;;;;;;3.47;3.10;;;9.00;99.90;;;;;;4958754;29;20286;-65
2021/05/24 04:05:23;;;;;;;3.20;2.80;;;9.10;99.90;;;;;;4959360;28;20440;-62
2021/05/24 04:07:52;;;;;;;3.47;3.27;;;9.10;99.90;;;;;;4958596;28;20814;-64
2021/05/24 04:10:21;;;;;;;6.90;3.20;;;9.10;99.90;;;;;;4957714;28;20451;-63
2021/05/24 04:12:47;;;;;;;4.10;3.70;;;9.10;99.90;;;;;;4957312;28;20482;-66
2021/05/24 04:15:15;;;;;;;3.43;3.17;;;9.00;99.90;;;;;;4957825;28;20460;-64
2021/05/24 04:17:42;;;;;;;4.73;3.70;;;9.00;99.90;;;;;;4957900;28;20466;-64
2021/05/24 04:20:12;;;;;;;7.40;3.90;;;9.00;99.90;;;;;;4958260;28;20827;-64
2021/05/24 04:22:38;;;;;;;5.67;3.60;;;9.00;99.90;;;;;;4959622;28;20462;-64
2021/05/24 04:25:06;;;;;;;3.27;2.90;;;9.10;99.90;;;;;;4961323;28;20459;-64
2021/05/24 04:27:32;;;;;;;3.73;3.33;;;9.10;99.90;;;;;;4959584;28;21029;-64
2021/05/24 04:29:58;;;;;;;3.73;3.10;;;9.10;99.90;;;;;;4960242;28;20547;-63
2021/05/24 04:32:25;;;;;;;6.07;3.63;;;9.10;99.90;;;;;;4958220;28;20471;-65
2021/05/24 04:34:51;;;;;;;3.70;3.40;;;9.20;99.90;;;;;;4957965;28;20491;-64
2021/05/24 04:37:18;;;;;;;3.57;3.37;;;9.30;99.90;;;;;;4957339;28;20820;-65
2021/05/24 04:39:45;;;;;;;3.80;3.50;;;9.40;99.90;;;;;;4969511;28;20524;-63
2021/05/24 04:42:12;;;;;;;4.93;4.00;;;9.40;99.90;;;;;;4969726;28;20537;-64
2021/05/24 04:44:38;;;;;;;3.57;3.27;;;9.40;99.90;;;;;;4957465;28;20456;-64
2021/05/24 04:47:04;;;;;;;3.37;3.10;;;9.50;99.90;;;;;;4957775;28;20534;-65
2021/05/24 04:49:32;;;;;;;4.27;3.67;;;9.50;99.90;;;;;;4957699;28;20455;-64
2021/05/24 04:51:58;;;;;;;3.13;2.93;;;9.60;99.90;;;;;;4957339;28;20501;-64
2021/05/24 04:54:26;;;;;;;3.60;3.30;;;9.70;99.90;;;;;;4957209;28;20483;-64
2021/05/24 04:56:52;;;;;;;3.50;3.20;;;9.70;99.90;;;;;;4956679;28;20459;-65
2021/05/24 04:59:19;;;;;;;3.47;3.20;;;9.70;99.90;;;;;;4956753;28;20599;-64
2021/05/24 05:01:47;;;;;;;5.43;3.43;;;9.80;99.90;;;;;;4956547;28;20501;-64
2021/05/24 05:04:13;;;;;;;3.67;3.33;;;9.80;99.90;;;;;;4956661;28;20455;-65
2021/05/24 05:06:39;;;;;;;3.80;3.50;;;9.90;99.90;;;;;;4956673;28;20466;-65
2021/05/24 05:09:06;;;;;;;3.63;3.27;;;9.80;99.90;;;;;;4956938;28;20459;-64
2021/05/24 05:11:33;;;;;;;3.50;3.20;;;10.00;99.90;;;;;;4957000;28;20475;-64
2021/05/24 05:13:59;;;;;;;3.63;3.33;;;10.10;99.90;;;;;;4956653;28;20491;-64
2021/05/24 05:16:25;;;;;;;3.80;3.43;;;10.30;99.90;;;;;;4956730;28;20459;-64
2021/05/24 05:18:52;;;;;;;4.43;3.27;;;10.30;99.90;;;;;;4956617;28;20515;-64
2021/05/24 05:21:19;;;;;;;3.27;3.07;;;10.50;99.90;;;;;;4956789;28;20479;-64
2021/05/24 05:23:45;;;;;;;3.77;3.37;;;10.50;99.90;;;;;;4956008;28;20456;-65
2021/05/24 05:26:11;;;;;;;5.20;3.27;;;10.60;99.90;;;;;;4956355;28;20950;-65
2021/05/24 05:28:39;;;;;;;3.93;3.33;;;10.60;99.90;;;;;;4956723;28;20459;-64
2021/05/24 05:31:06;;;;;;;3.40;3.10;;;10.60;99.90;;;;;;4956466;28;20566;-65
2021/05/24 05:33:32;;;;;;;3.30;3.10;;;10.60;99.90;;;;;;4956461;28;20480;-63
2021/05/24 05:35:58;;;;;;;3.50;3.20;;;10.70;99.90;;;;;;4956559;28;20460;-63
2021/05/24 05:38:27;;;;;;;3.77;3.50;;;10.90;99.90;;;;;;4956196;28;20965;-64
2021/05/24 05:40:54;;;;;;;4.97;3.13;;;11.00;99.90;;;;;;4956464;28;20479;-64
2021/05/24 05:43:20;;;;;;;2.90;2.70;;;10.90;99.90;;;;;;4956422;28;20451;-63
2021/05/24 05:45:48;;;;;;;4.80;3.20;;;10.90;99.90;;;;;;4956211;28;20451;-65
2021/05/24 05:48:14;;;;;;;4.37;3.10;;;10.90;99.90;;;;;;4956460;28;20455;-65
2021/05/24 05:50:41;;;;;;;3.60;3.30;;;11.00;99.90;;;;;;4956338;28;20867;-64
2021/05/24 05:53:07;;;;;;;7.80;3.83;;;11.10;99.90;;;;;;4956040;28;20512;-64
2021/05/24 05:55:33;;;;;;;3.53;3.23;;;11.10;99.90;;;;;;4956263;28;20459;-65
2021/05/24 05:58:00;;;;;;;4.17;3.40;;;11.10;99.90;;;;;;4956371;28;20465;-64
2021/05/24 06:00:26;;;;;;;3.40;3.10;;;11.20;99.90;;;;;;4956104;28;20456;-64
2021/05/24 06:02:53;;;;;;;4.27;3.30;;;11.30;99.90;;;;;;4956195;28;20443;-64
2021/05/24 06:05:21;;;;;;;3.17;2.90;;;11.40;99.90;;;;;;4956060;28;20535;-65
2021/05/24 06:07:47;;;;;;;4.17;3.10;;;11.50;99.90;;;;;;4955952;28;20455;-65
2021/05/24 06:10:16;;;;;;;3.60;3.00;;;11.60;99.90;;;;;;4956501;28;20455;-64
2021/05/24 06:12:43;;;;;;;3.70;3.30;;;11.60;99.90;;;;;;4960938;28;20458;-65
2021/05/24 06:15:13;;;;;;;3.10;2.90;;;11.70;99.90;;;;;;4955998;28;20487;-65
2021/05/24 06:17:39;;;;;;;3.40;3.20;;;11.60;99.90;;;;;;4955983;28;20455;-64
2021/05/24 06:20:07;;;;;;;2.70;2.50;;;11.70;99.90;;;;;;4956080;28;20832;-64
2021/05/24 06:22:34;;;;;;;3.10;2.73;;;11.80;99.90;;;;;;4955977;28;21048;-65
2021/05/24 06:25:00;;;;;;;3.30;3.10;;;12.00;99.90;;;;;;4956240;28;20440;-64
2021/05/24 06:27:26;;;;;;;3.17;2.87;;;12.10;99.90;;;;;;4957014;28;20462;-64
2021/05/24 06:29:53;;;;;;;4.40;3.20;;;12.30;99.90;;;;;;4956786;28;20539;-64
2021/05/24 06:32:19;;;;;;;2.87;2.67;;;12.40;99.90;;;;;;4956276;29;20490;-63
2021/05/24 06:34:45;;;;;;;3.13;2.83;;;12.50;99.90;;;;;;4956344;28;20487;-64
2021/05/24 06:37:12;;;;;;;3.17;2.97;;;12.70;99.90;;;;;;4959915;28;20466;-64
2021/05/24 06:39:38;;;;;;;7.87;3.27;;;12.90;99.90;;;;;;4959554;28;20455;-65
2021/05/24 06:42:06;;;;;;;3.20;3.00;;;13.00;99.90;;;;;;4959435;28;20479;-66
2021/05/24 06:44:32;;;;;;;4.10;3.23;;;13.20;99.90;;;;;;4960085;28;20451;-64
2021/05/24 06:46:59;;;;;;;3.07;2.87;;;13.40;99.90;;;;;;4959241;28;20969;-65
2021/05/24 06:49:25;;;;;;;3.77;2.87;;;13.40;99.90;;;;;;4959484;28;20448;-64
2021/05/24 06:51:51;;;;;;;3.73;2.80;;;13.20;99.90;;;;;;4959750;28;20641;-62
2021/05/24 06:54:18;;;;;;;3.10;2.87;;;13.40;99.90;;;;;;4959124;28;20486;-63
2021/05/24 06:56:45;;;;;;;3.40;3.10;;;13.50;99.90;;;;;;4958871;28;20455;-63
2021/05/24 06:59:11;;;;;;;3.13;2.90;;;13.60;99.90;;;;;;4959204;28;20567;-63
2021/05/24 07:01:38;;;;;;;3.40;3.10;;;13.70;99.90;;;;;;4958886;28;21016;-62
2021/05/24 07:04:05;;;;;;;3.20;2.57;;;13.70;99.90;;;;;;4959836;28;20546;-62
2021/05/24 07:06:32;;;;;;;3.03;2.83;;;13.70;99.90;;;;;;4961375;28;20977;-62
2021/05/24 07:08:58;;;;;;;3.00;2.70;;;13.80;99.90;;;;;;4959765;28;20951;-62
2021/05/24 07:11:25;;;;;;;2.60;2.50;;;14.00;99.90;;;;;;4959535;28;20475;-62
2021/05/24 07:13:51;;;;;;;3.53;2.80;;;14.30;99.90;;;;;;4958682;28;21007;-63
2021/05/24 07:16:17;;;;;;;4.20;3.20;;;14.60;99.90;;;;;;4959304;28;20460;-63
2021/05/24 07:18:43;;;;;;;2.70;2.50;;;14.90;99.90;;;;;;4958699;28;20452;-63
2021/05/24 07:21:10;;;;;;;2.40;2.23;;;15.30;99.90;;;;;;4959345;28;20486;-62
2021/05/24 07:23:36;;;;;;;2.70;2.53;;;15.40;99.90;;;;;;4958531;28;20950;-62
2021/05/24 07:26:02;;;;;;;2.57;2.37;;;15.60;99.90;;;;;;4958443;28;20947;-63
2021/05/24 07:28:29;;;;;;;2.53;2.30;;;15.80;99.90;;;;;;4959281;28;20460;-62
2021/05/24 07:30:56;;;;;;;3.30;2.63;;;15.90;99.90;;;;;;4958944;28;20475;-62
2021/05/24 07:33:22;;;;;;;2.90;2.70;;;16.30;99.90;;;;;;4959695;28;20468;-62
2021/05/24 07:35:48;;;;;;;4.97;2.80;;;16.70;99.90;;;;;;4959164;28;20455;-62
2021/05/24 07:38:14;;;;;;;2.40;2.30;;;16.80;99.90;;;;;;4959069;28;20443;-64
2021/05/24 07:40:41;;;;;;;2.27;2.17;;;17.00;99.90;;;;;;4960640;28;20476;-63
2021/05/24 07:43:07;;;;;;;2.60;2.10;;;17.30;99.90;;;;;;4964230;28;20821;-63
2021/05/24 07:45:34;;;;;;;2.20;2.00;;;17.60;99.90;;;;;;4966166;28;20506;-62
2021/05/24 07:48:00;;;;;;;2.20;2.00;;;17.40;99.90;;;;;;4959358;28;20463;-63
2021/05/24 07:50:26;;;;;;;3.17;2.60;;;17.30;99.90;;;;;;4959058;28;20463;-64
2021/05/24 07:52:53;;;;;;;11.50;2.60;;;17.30;99.90;;;;;;4959402;28;20455;-64
2021/05/24 07:55:19;;;;;;;2.17;2.07;;;17.10;99.90;;;;;;4959291;28;20460;-64
2021/05/24 07:57:45;;;;;;;3.07;2.87;;;17.00;99.90;;;;;;4958927;28;20823;-64
2021/05/24 08:00:13;;;;;;;3.60;2.17;;;17.00;99.90;;;;;;4957906;28;20455;-64
2021/05/24 08:02:41;;;;;;;3.10;2.63;;;16.90;99.90;;;;;;4958435;28;20459;-64
2021/05/24 08:05:10;;;;;;;3.27;2.97;;;16.80;99.90;;;;;;4958360;28;20559;-64
2021/05/24 08:07:37;;;;;;;5.03;3.07;;;16.60;99.90;;;;;;4958129;28;20546;-64
2021/05/24 08:10:05;;;;;;;3.30;3.10;;;16.40;99.90;;;;;;4958087;28;20444;-64
2021/05/24 08:12:34;;;;;;;3.87;2.70;;;16.40;99.90;;;;;;4958040;28;20479;-64
2021/05/24 08:15:00;;;;;;;2.93;2.73;;;16.50;99.90;;;;;;4958223;28;20486;-66
2021/05/24 08:17:26;;;;;;;5.37;3.00;;;16.60;99.90;;;;;;4957660;28;20510;-64
2021/05/24 08:19:53;;;;;;;3.30;3.00;;;16.60;99.90;;;;;;4957733;28;20459;-65
2021/05/24 08:22:19;;;;;;;2.67;2.47;;;16.60;99.90;;;;;;4958112;28;20811;-64
2021/05/24 08:24:46;;;;;;;5.13;3.10;;;16.60;99.90;;;;;;4957785;28;20452;-64
2021/05/24 08:27:12;;;;;;;2.83;2.10;;;16.80;99.90;;;;;;4957713;28;20865;-64
2021/05/24 08:29:38;;;;;;;3.13;2.93;;;17.00;99.90;;;;;;4957675;28;20456;-64
2021/05/24 08:32:05;;;;;;;2.73;2.53;;;17.10;99.90;;;;;;4958139;28;20479;-64
2021/05/24 08:34:31;;;;;;;5.33;2.40;;;17.50;99.90;;;;;;4959331;28;20847;-65
2021/05/24 08:36:58;;;;;;;5.23;2.20;;;17.80;99.90;;;;;;4958511;28;20506;-64
2021/05/24 08:39:25;;;;;;;5.23;2.30;;;18.20;99.90;;;;;;4957584;28;20463;-64
2021/05/24 08:41:53;;;;;;;3.00;2.70;;;18.50;99.90;;;;;;4959658;28;20479;-64
2021/05/24 08:44:19;;;;;;;2.60;2.40;;;18.70;99.90;;;;;;4957904;28;20454;-65
2021/05/24 08:46:46;;;;;;;2.97;2.67;;;18.80;99.90;;;;;;4957444;28;20487;-64
2021/05/24 08:49:12;;;;;;;2.73;2.33;;;18.80;99.90;;;;;;4958060;28;20907;-65
2021/05/24 08:51:39;;;;;;;3.33;2.27;;;18.80;99.90;;;;;;4956746;28;20480;-65
2021/05/24 08:54:06;;;;;;;2.70;2.50;;;19.00;99.90;;;;;;4956834;28;20839;-65
2021/05/24 08:56:33;;;;;;;3.13;2.90;;;19.40;99.90;;;;;;4957146;28;20506;-65
2021/05/24 08:59:01;;;;;;;2.90;2.70;;;19.80;99.90;;;;;;4956892;28;20489;-64
2021/05/24 09:01:28;;;;;;;2.17;2.07;;;20.20;99.90;;;;;;4956855;28;20649;-65
2021/05/24 09:03:59;;;;;;;2.00;1.90;;;20.60;99.90;;;;;;4956983;28;20942;-65
2021/05/24 09:06:36;;;;;;;2.60;2.40;;;21.40;99.60;;;;;;4956959;28;20515;-65
2021/05/24 09:09:12;;;;;;;2.80;2.60;;;22.20;97.30;;;;;;4958299;28;20451;-65
2021/05/24 09:11:39;;;;;;;1.43;1.43;;;22.80;96.80;;;;;;4958155;28;20476;-65
2021/05/24 09:14:13;;;;;;;2.63;1.60;;;23.30;90.20;;;;;;4956351;28;20483;-65
2021/05/24 09:16:40;;;;;;;1.80;1.70;;;23.40;88.80;;;;;;4958696;28;20518;-64
2021/05/24 09:19:25;;;;;;;2.67;1.87;;;23.50;90.00;;;;;;4965041;28;21018;-66
2021/05/24 09:21:54;;;;;;;1.30;1.30;;;23.40;87.20;;;;;;4956799;28;20467;-66
2021/05/24 09:24:27;;;;;;;1.87;1.77;;;23.50;85.80;;;;;;4956679;28;20459;-65
2021/05/24 09:26:55;;;;;;;1.73;1.63;;;23.50;86.40;;;;;;4957053;28;20536;-66
2021/05/24 09:29:24;;;;;;;1.63;1.53;;;23.20;84.40;;;;;;4956849;28;20447;-65
2021/05/24 09:32:16;;;;;;;1.40;1.30;;;22.80;84.50;;;;;;4956103;28;21005;-66
2021/05/24 09:34:43;;;;;;;1.83;1.73;;;22.60;83.80;;;;;;4956296;28;20464;-63
2021/05/24 09:37:10;;;;;;;1.30;1.30;;;22.10;90.60;;;;;;4956229;28;20459;-65
2021/05/24 09:39:37;;;;;;;1.77;1.67;;;22.30;88.30;;;;;;4956914;28;20455;-64
2021/05/24 09:42:08;;;;;;;2.23;1.40;;;22.00;87.30;;;;;;4956514;28;20476;-66
2021/05/24 09:44:41;;;;;;;2.60;1.50;;;21.60;87.90;;;;;;4957597;28;20458;-65
2021/05/24 09:47:08;;;;;;;2.03;1.83;;;21.70;88.50;;;;;;4958400;28;20942;-65
2021/05/24 09:49:35;;;;;;;1.30;1.30;;;21.80;88.30;;;;;;4958966;28;20456;-67
2021/05/24 09:52:01;;;;;;;1.47;1.47;;;21.50;85.50;;;;;;4959305;28;20665;-66
2021/05/24 09:54:31;;;;;;;4.17;2.00;;;21.30;87.40;;;;;;4958989;28;20483;-65
2021/05/24 09:56:59;;;;;;;2.40;1.30;;;21.30;88.00;;;;;;4956308;28;20455;-65
2021/05/24 09:59:27;;;;;;;1.63;1.53;;;21.20;85.50;;;;;;4956255;28;20867;-66
2021/05/24 10:01:56;;;;;;;1.43;1.33;;;20.90;86.40;;;;;;4956402;28;20487;-65
2021/05/24 10:04:24;;;;;;;2.93;1.60;;;20.90;90.30;;;;;;4956071;28;20829;-65
2021/05/24 10:06:50;;;;;;;2.27;2.10;;;20.80;87.80;;;;;;4955977;28;20479;-66
2021/05/24 10:09:18;;;;;;;2.10;1.40;;;20.80;89.90;;;;;;4956258;28;20460;-64
2021/05/24 10:11:46;;;;;;;2.40;1.83;;;20.70;89.10;;;;;;4959616;28;20570;-64
2021/05/24 10:14:14;;;;;;;1.90;1.40;;;20.90;90.00;;;;;;4960095;28;20490;-63
2021/05/24 10:16:43;;;;;;;1.37;1.27;;;21.00;90.10;;;;;;4959663;28;20451;-65
2021/05/24 10:19:12;;;;;;;1.40;1.40;;;21.00;88.80;;;;;;4959909;28;20454;-65
2021/05/24 10:21:38;;;;;;;2.10;1.53;;;20.90;88.40;;;;;;4960098;28;20475;-65
2021/05/24 10:24:06;;;;;;;2.00;1.70;;;20.80;88.10;;;;;;4959825;28;20466;-63
2021/05/24 10:26:33;;;;;;;4.37;1.80;;;20.60;88.70;;;;;;4959675;28;20455;-63
2021/05/24 10:29:01;;;;;;;2.23;1.63;;;20.60;93.60;;;;;;4959676;28;20784;-63
2021/05/24 10:31:31;;;;;;;3.83;1.80;;;20.90;94.50;;;;;;4959423;28;20471;-64
2021/05/24 10:34:11;;;;;;;2.03;1.50;;;21.00;91.40;;;;;;4960780;28;20514;-65
2021/05/24 10:36:37;;;;;;;1.60;1.50;;;21.10;91.30;;;;;;4960083;28;20447;-64
2021/05/24 10:39:13;;;;;;;1.73;1.50;;;20.90;90.00;;;;;;4959568;28;20954;-64
2021/05/24 10:41:52;;;;;;;1.80;1.73;;;20.80;90.20;;;;;;4959609;28;20566;-64
2021/05/24 10:44:20;;;;;;;2.20;1.47;;;20.80;91.40;;;;;;4959678;28;20518;-62
2021/05/24 10:46:48;;;;;;;1.93;1.83;;;20.80;91.20;;;;;;4959249;28;20797;-64
2021/05/24 10:49:18;;;;;;;1.93;1.80;;;20.70;91.40;;;;;;4963521;28;20459;-65
2021/05/24 10:51:59;;;;;;;2.83;1.53;;;20.60;90.40;;;;;;4968385;28;20482;-65
2021/05/24 10:54:29;;;;;;;1.77;1.50;;;20.60;91.60;;;;;;4959998;28;20463;-65
2021/05/24 10:57:18;;;;;;;2.17;1.60;;;20.60;91.60;;;;;;4959819;28;20542;-64
2021/05/24 10:59:59;;;;;;;2.20;2.00;;;20.60;92.00;;;;;;4959570;28;20447;-63
2021/05/24 11:02:28;;;;;;;2.13;1.57;;;20.50;92.60;;;;;;4959213;28;20838;-65
2021/05/24 11:04:57;;;;;;;1.67;1.57;;;20.50;92.60;;;;;;4958972;28;20440;-64
2021/05/24 11:07:26;;;;;;;1.50;1.43;;;20.50;92.30;;;;;;4959473;28;20443;-63
2021/05/24 11:09:53;;;;;;;1.60;1.50;;;20.30;92.30;;;;;;4958909;28;21021;-63
2021/05/24 11:12:29;;;;;;;2.20;1.80;;;20.20;92.80;;;;;;4958806;28;20483;-63
2021/05/24 11:15:10;;;;;;;2.80;1.70;;;20.30;93.20;;;;;;4959467;28;20479;-65
2021/05/24 11:18:17;;;;;;;1.73;1.63;;;20.10;92.70;;;;;;4959283;28;20460;-64
2021/05/24 11:20:47;;;;;;;2.17;1.60;;;19.90;93.30;;;;;;4959554;28;20515;-64
2021/05/24 11:23:23;;;;;;;2.57;1.70;;;20.00;93.30;;;;;;4958024;28;20436;-63
2021/05/24 11:25:51;;;;;;;2.67;2.50;;;20.10;93.20;;;;;;4958861;28;20450;-63
2021/05/24 11:28:18;;;;;;;4.13;2.73;;;20.20;93.00;;;;;;4958900;28;20540;-64
2021/05/24 11:30:44;;;;;;;2.20;1.77;;;20.30;93.30;;;;;;4958445;28;20991;-63
2021/05/24 11:33:35;;;;;;;1.73;1.63;;;20.50;92.50;;;;;;4958599;28;20459;-63
2021/05/24 11:36:02;;;;;;;1.70;1.53;;;20.90;92.20;;;;;;4959166;28;20443;-64
2021/05/24 11:38:28;;;;;;;2.13;1.97;;;21.30;92.10;;;;;;4958547;28;20467;-64
2021/05/24 11:41:10;;;;;;;1.90;1.80;;;21.50;90.90;;;;;;4958456;28;20530;-65
2021/05/24 11:46:44;;;;;;;2.33;2.13;;;22.00;90.80;;;;;;4958532;28;20870;-65
2021/05/24 11:49:13;;;;;;;5.63;4.87;;;22.30;90.80;;;;;;4959716;28;20522;-65
2021/05/24 11:51:41;;;;;;;2.77;2.60;;;22.70;92.50;;;;;;4958767;28;20489;-65
2021/05/24 11:54:09;;;;;;;1.93;1.83;;;22.80;89.70;;;;;;4957915;28;20467;-66
2021/05/24 11:56:41;;;;;;;2.70;1.90;;;22.90;89.60;;;;;;4958669;28;20451;-65
2021/05/24 11:59:10;;;;;;;1.67;1.57;;;23.20;90.40;;;;;;4957578;28;20440;-66
2021/05/24 12:01:37;;;;;;;3.30;2.10;;;23.30;87.40;;;;;;4957851;28;20487;-65
2021/05/24 12:04:12;;;;;;;3.23;2.27;;;23.30;84.80;;;;;;4958212;28;20436;-64
2021/05/24 12:06:47;;;;;;;1.20;1.20;;;23.10;84.80;;;;;;4957453;28;20498;-65
2021/05/24 12:09:15;;;;;;;1.00;0.90;;;23.40;83.40;;;;;;4957819;28;20462;-65
2021/05/24 12:11:55;;;;;;;1.47;1.37;;;23.50;77.90;;;;;;4957643;28;20479;-65
2021/05/24 12:14:22;;;;;;;1.73;1.63;;;23.60;77.20;;;;;;4957354;28;20598;-66
2021/05/24 12:16:49;;;;;;;1.60;1.50;;;23.90;80.30;;;;;;4957923;28;20455;-66
2021/05/24 12:19:21;;;;;;;2.53;1.40;;;24.40;78.40;;;;;;4957817;28;20891;-66
2021/05/24 12:21:47;;;;;;;2.43;1.63;;;24.50;75.10;;;;;;4962050;28;20480;-65
2021/05/24 12:24:15;;;;;;;1.50;1.50;;;24.70;74.00;;;;;;4965801;28;20538;-66
2021/05/24 12:26:48;;;;;;;2.00;1.90;;;24.70;66.70;;;;;;4957667;28;20486;-66
2021/05/24 12:29:20;;;;;;;2.10;1.90;;;24.60;68.40;;;;;;4957762;28;20499;-66
2021/05/24 12:31:47;;;;;;;7.10;1.70;;;24.20;67.90;;;;;;4957356;28;20475;-65
2021/05/24 12:34:14;;;;;;;2.60;1.70;;;23.70;70.90;;;;;;4957521;28;20475;-65
2021/05/24 12:36:46;;;;;;;4.60;2.40;;;23.30;69.00;;;;;;4957037;28;20848;-65
2021/05/24 12:39:18;;;;;;;1.30;1.20;;;23.10;70.60;;;;;;4956925;28;20845;-65
2021/05/24 12:41:45;;;;;;;2.93;2.73;;;22.50;71.10;;;;;;4957262;28;20497;-65
2021/05/24 12:44:11;;;;;;;1.30;1.30;;;22.40;75.30;;;;;;4957051;28;20456;-65
2021/05/24 12:46:42;;;;;;;4.57;1.50;;;22.20;75.20;;;;;;4956887;28;20511;-65
2021/05/24 12:49:08;;;;;;;1.50;1.40;;;21.90;76.20;;;;;;4957017;28;20496;-65
2021/05/24 12:51:35;;;;;;;1.63;1.40;;;21.70;77.60;;;;;;4957009;28;20486;-65
2021/05/24 12:54:05;;;;;;;1.80;1.70;;;21.60;77.00;;;;;;4957051;28;20476;-65
2021/05/24 12:56:38;;;;;;;1.40;1.30;;;21.40;79.20;;;;;;4964141;28;20450;-66
2021/05/24 12:59:13;;;;;;;2.03;1.83;;;21.40;80.40;;;;;;4957086;28;20498;-65
2021/05/24 13:01:39;;;;;;;1.30;1.20;;;21.30;80.90;;;;;;4966149;28;20855;-66
2021/05/24 13:04:06;;;;;;;1.27;1.10;;;21.20;80.00;;;;;;4959893;28;20455;-65
2021/05/24 13:06:42;;;;;;;1.60;1.60;;;21.00;81.70;;;;;;4956778;28;20470;-65
2021/05/24 13:09:15;;;;;;;2.97;1.77;;;20.90;81.10;;;;;;4957370;28;20447;-65
2021/05/24 13:11:49;;;;;;;2.27;1.50;;;20.80;81.90;;;;;;4956583;28;20823;-66
2021/05/24 13:14:30;;;;;;;1.67;1.57;;;20.70;80.60;;;;;;4956773;28;20989;-65
2021/05/24 13:17:18;;;;;;;1.60;1.50;;;20.60;83.40;;;;;;4957187;28;20534;-65
2021/05/24 13:20:04;;;;;;;2.00;1.80;;;20.70;83.70;;;;;;4957913;28;20444;-66
2021/05/24 13:28:48;;;;;;;1.50;1.50;;;20.50;79.90;;;;;;4956350;28;21008;-66
2021/05/24 13:31:24;;;;;;;1.60;1.50;;;20.60;80.20;;;;;;4956467;28;20486;-65
2021/05/24 13:33:52;;;;;;;2.00;1.20;;;20.60;82.00;;;;;;4956204;28;20973;-65
2021/05/24 13:36:24;;;;;;;2.33;2.23;;;20.90;82.70;;;;;;4956539;28;20466;-65
2021/05/24 13:39:03;;;;;;;2.00;1.90;;;21.00;82.40;;;;;;4956363;28;20440;-65
2021/05/24 13:41:31;;;;;;;2.00;1.90;;;21.00;83.20;;;;;;4956550;28;20479;-65
2021/05/24 13:43:58;;;;;;;1.80;1.70;;;21.00;83.80;;;;;;4956956;28;20448;-65
2021/05/24 13:46:25;;;;;;;4.27;1.67;;;20.90;80.90;;;;;;4959920;28;20462;-66
2021/05/24 13:48:53;;;;;;;2.13;1.93;;;20.80;81.90;;;;;;4960773;28;20452;-65
2021/05/24 13:51:20;;;;;;;3.40;3.10;;;20.80;83.90;;;;;;4960640;28;20479;-66
2021/05/24 13:53:48;;;;;;;1.50;1.43;;;20.80;84.50;;;;;;4968869;28;20462;-65
2021/05/24 13:56:14;;;;;;;1.87;1.70;;;20.90;85.40;;;;;;4965871;28;20456;-65
2021/05/24 13:58:41;;;;;;;3.37;1.70;;;21.10;87.40;;;;;;4960713;28;20455;-65
2021/05/24 14:01:07;;;;;;;2.33;2.00;;;21.10;86.00;;;;;;4959535;28;21077;-65
2021/05/24 14:03:33;;;;;;;2.00;1.80;;;21.20;86.00;;;;;;4960209;28;20510;-65
2021/05/24 14:06:00;;;;;;;1.63;1.53;;;21.10;85.40;;;;;;4959945;28;20462;-65
2021/05/24 14:08:26;;;;;;;1.33;1.30;;;20.90;78.70;;;;;;4959550;29;20455;-66
2021/05/24 14:10:52;;;;;;;1.43;1.33;;;20.80;71.20;;;;;;4959598;28;20479;-65
2021/05/24 14:13:20;;;;;;;1.47;1.40;;;20.70;72.60;;;;;;4959793;28;20823;-65
2021/05/24 14:15:48;;;;;;;1.20;1.20;;;20.80;72.80;;;;;;4960010;28;20486;-65
2021/05/24 14:18:14;;;;;;;1.93;1.30;;;20.80;72.30;;;;;;4960304;28;20542;-65
2021/05/24 14:20:41;;;;;;;1.57;1.47;;;20.90;72.50;;;;;;4960291;28;20482;-65
2021/05/24 14:23:07;;;;;;;1.07;1.07;;;21.00;72.90;;;;;;4960900;28;20769;-65
2021/05/24 14:25:34;;;;;;;1.90;1.20;;;21.00;74.70;;;;;;4959491;28;20456;-65
2021/05/24 14:28:00;;;;;;;2.00;1.20;;;21.00;74.30;;;;;;4959595;28;20510;-65
2021/05/24 14:30:28;;;;;;;1.87;1.70;;;21.10;71.30;;;;;;4959600;28;20460;-65
2021/05/24 14:32:57;;;;;;;1.40;1.40;;;21.10;71.60;;;;;;4959232;28;20495;-65
2021/05/24 14:35:25;;;;;;;1.93;1.23;;;21.30;73.70;;;;;;4959575;28;20482;-65
2021/05/24 14:37:52;;;;;;;2.90;2.70;;;21.20;75.40;;;;;;4959375;28;20455;-65
2021/05/24 14:40:18;;;;;;;2.30;2.10;;;21.20;74.40;;;;;;4959543;28;20460;-64
2021/05/24 14:42:44;;;;;;;1.70;1.30;;;21.20;75.60;;;;;;4959963;28;20459;-65
2021/05/24 14:45:11;;;;;;;1.70;1.43;;;21.20;72.70;;;;;;4960205;28;20452;-64
2021/05/24 14:47:38;;;;;;;0.97;0.97;;;21.10;70.00;;;;;;4960409;28;20460;-65
2021/05/24 14:50:07;;;;;;;1.73;1.63;;;21.00;67.80;;;;;;4960189;28;20451;-64
2021/05/24 14:52:33;;;;;;;1.50;1.40;;;20.70;67.60;;;;;;4959356;28;20482;-65
2021/05/24 14:55:00;;;;;;;1.57;1.47;;;20.60;68.70;;;;;;4959282;28;20479;-65
2021/05/24 14:57:27;;;;;;;3.57;3.27;;;20.60;68.10;;;;;;4959236;28;20497;-65
2021/05/24 14:59:54;;;;;;;3.80;3.30;;;20.50;68.70;;;;;;4959333;28;20459;-65
2021/05/24 15:02:20;;;;;;;2.40;2.20;;;20.40;68.10;;;;;;4959477;28;20483;-66
2021/05/24 15:04:46;;;;;;;9.00;8.30;;;20.30;68.10;;;;;;4961837;28;20451;-65
2021/05/24 15:07:14;;;;;;;2.23;1.67;;;20.20;68.80;;;;;;4964774;28;20459;-65
2021/05/24 15:09:40;;;;;;;2.47;1.90;;;20.30;68.90;;;;;;4964991;28;20946;-66
2021/05/24 15:12:07;;;;;;;1.90;1.70;;;20.20;69.40;;;;;;4964630;28;20475;-66
2021/05/24 15:14:34;;;;;;;2.40;2.20;;;20.10;68.40;;;;;;4962834;28;20489;-65
2021/05/24 15:17:01;;;;;;;2.43;1.40;;;20.00;69.50;;;;;;4959427;28;20463;-64
2021/05/24 15:19:27;;;;;;;6.93;2.03;;;20.10;69.60;;;;;;4959834;28;20497;-65
2021/05/24 15:21:53;;;;;;;1.20;1.17;;;20.20;70.40;;;;;;4959178;28;20836;-65
2021/05/24 15:24:20;;;;;;;1.20;1.20;;;20.30;70.20;;;;;;4959743;28;20491;-65
2021/05/24 15:26:48;;;;;;;3.77;1.40;;;20.30;68.90;;;;;;4968233;28;20448;-65
2021/05/24 15:29:15;;;;;;;1.40;0.90;;;20.30;68.70;;;;;;4958726;28;20460;-66
2021/05/24 15:31:42;;;;;;;1.07;1.07;;;20.20;68.60;;;;;;4960073;28;20483;-65
2021/05/24 15:34:08;;;;;;;1.00;1.00;;;20.20;69.30;;;;;;4960369;28;20475;-65
2021/05/24 15:36:35;;;;;;;1.83;0.83;;;20.10;70.10;;;;;;4960197;28;20518;-66
2021/05/24 15:39:02;;;;;;;0.93;0.93;;;20.10;69.90;;;;;;4960823;28;20510;-65
2021/05/24 15:41:29;;;;;;;1.87;1.20;;;20.10;71.10;;;;;;4959680;28;20483;-65
2021/05/24 15:43:57;;;;;;;3.17;0.97;;;20.20;70.70;;;;;;4958951;28;20462;-64
2021/05/24 15:46:23;;;;;;;2.97;0.97;;;20.30;72.50;;;;;;4959503;28;20456;-64
2021/05/24 15:48:50;;;;;;;1.70;1.20;;;20.20;77.70;;;;;;4959030;28;20459;-64
2021/05/24 15:51:16;;;;;;;4.07;1.50;;;20.20;78.60;;;;;;4959008;28;20574;-66
2021/05/24 15:53:43;;;;;;;2.40;1.30;;;20.20;79.70;;;;;;4958521;28;20459;-65
2021/05/24 15:56:09;;;;;;;4.40;1.63;;;19.90;82.30;;;;;;4959256;28;20549;-66
2021/05/24 15:58:36;;;;;;;2.43;1.70;;;19.80;85.10;;;;;;4959151;28;20515;-65
2021/05/24 16:01:03;;;;;;;1.33;1.27;;;19.70;86.80;;;;;;4957881;28;20491;-66
2021/05/24 16:03:30;;;;;;;3.40;1.70;;;19.40;87.30;;;;;;4958861;28;20455;-65
2021/05/24 16:05:56;;;;;;;1.50;1.10;;;19.30;89.00;;;;;;4958168;28;20522;-65
2021/05/24 16:08:22;;;;;;;5.00;1.90;;;19.20;90.10;;;;;;4959375;28;20458;-64
2021/05/24 16:10:50;;;;;;;1.37;1.13;;;19.20;90.40;;;;;;4958409;28;20562;-64
2021/05/24 16:13:17;;;;;;;1.57;1.47;;;19.10;90.70;;;;;;4957788;28;20455;-65
2021/05/24 16:15:44;;;;;;;1.60;1.40;;;19.00;90.60;;;;;;4959040;28;20547;-65
2021/05/24 16:18:11;;;;;;;1.27;1.20;;;18.80;91.10;;;;;;4958323;28;20510;-65
2021/05/24 16:20:39;;;;;;;1.27;1.07;;;18.70;91.10;;;;;;4958234;28;20487;-66
2021/05/24 16:23:08;;;;;;;4.03;1.70;;;18.60;91.60;;;;;;4958441;28;20463;-65
2021/05/24 16:25:46;;;;;;;2.17;1.20;;;18.50;92.00;;;;;;4959274;28;20455;-66
2021/05/24 16:28:13;;;;;;;3.33;1.87;;;18.50;91.90;;;;;;4962043;28;20444;-65
2021/05/24 16:30:41;;;;;;;2.17;2.07;;;18.40;92.30;;;;;;4958758;28;20486;-64
2021/05/24 16:33:09;;;;;;;1.53;1.40;;;18.40;93.30;;;;;;4959136;28;20493;-64
2021/05/24 16:35:36;;;;;;;5.90;2.77;;;18.30;93.40;;;;;;4958740;28;20490;-66
2021/05/24 16:38:02;;;;;;;2.37;1.23;;;18.30;94.20;;;;;;4957929;28;20947;-65
2021/05/24 16:40:30;;;;;;;2.87;1.50;;;18.10;93.00;;;;;;4958644;28;20909;-64
2021/05/24 16:42:59;;;;;;;1.20;1.10;;;18.10;93.80;;;;;;4960091;28;20451;-63
2021/05/24 16:45:26;;;;;;;4.00;1.50;;;18.10;93.40;;;;;;4958746;28;20459;-62
2021/05/24 16:47:52;;;;;;;1.00;1.00;;;17.80;93.50;;;;;;4958326;28;20451;-65
2021/05/24 16:50:19;;;;;;;4.53;1.17;;;17.60;94.10;;;;;;4958144;28;20981;-64
2021/05/24 16:52:45;;;;;;;3.07;1.43;;;17.40;95.10;;;;;;4959362;28;20466;-65
2021/05/24 16:55:13;;;;;;;2.17;1.87;;;17.20;96.00;;;;;;4959011;28;20480;-64
2021/05/24 16:57:40;;;;;;;2.80;1.20;;;17.10;96.90;;;;;;4959309;28;20817;-64
2021/05/24 17:00:12;;;;;;;12.13;2.10;;;16.90;97.20;;;;;;4967351;28;20527;-64
2021/05/24 17:02:40;;;;;;;3.87;1.70;;;16.90;97.70;;;;;;4959599;28;20486;-64
2021/05/24 17:05:07;;;;;;;3.67;1.50;;;16.70;97.80;;;;;;4958965;28;20436;-64